createdAt,value
2023-01-03T00:01:35.598Z,26.55
2023-01-03T00:04:05.836Z,30.73
2023-01-03T00:06:36.897Z,34.30
2023-01-03T00:09:11.163Z,32.55
2023-01-03T00:12:00.862Z,36.63
2023-01-03T00:14:32.039Z,32.17
2023-01-03T00:17:02.255Z,30.38
2023-01-03T00:19:36.361Z,28.50
2023-01-03T00:22:05.420Z,30.40
2023-01-03T00:24:34.215Z,31.70
2023-01-03T00:27:03.058Z,29.90
2023-01-03T00:29:31.574Z,31.10
2023-01-03T00:31:59.915Z,29.55
2023-01-03T00:34:28.955Z,26.38
2023-01-03T00:36:59.017Z,27.67
2023-01-03T00:39:27.657Z,32.40
2023-01-03T00:41:56.106Z,29.98
2023-01-03T00:44:24.781Z,33.80
2023-01-03T00:46:53.240Z,29.23
2023-01-03T00:49:21.956Z,29.70
2023-01-03T00:51:50.712Z,31.17
2023-01-03T00:54:20.831Z,28.65
2023-01-03T00:56:51.048Z,33.90
2023-01-03T00:59:21.315Z,31.85
2023-01-03T01:01:52.304Z,34.90
2023-01-03T01:04:24.434Z,32.80
2023-01-03T01:06:55.658Z,26.17
2023-01-03T01:09:27.940Z,25.65
2023-01-03T01:11:56.789Z,26.10
2023-01-03T01:14:28.641Z,28.30
2023-01-03T01:17:00.846Z,25.77
2023-01-03T01:19:32.109Z,29.48
2023-01-03T01:22:00.508Z,27.10
2023-01-03T01:24:31.140Z,27.55
2023-01-03T01:26:59.466Z,30.48
2023-01-03T01:29:28.221Z,30.40
2023-01-03T01:31:56.652Z,30.75
2023-01-03T01:34:25.221Z,27.38
2023-01-03T01:36:53.705Z,24.15
2023-01-03T01:39:25.254Z,27.63
2023-01-03T01:42:19.842Z,26.38
2023-01-03T01:44:55.101Z,28.20
2023-01-03T01:47:38.121Z,27.13
2023-01-03T01:50:17.972Z,27.13
2023-01-03T01:52:55.764Z,25.90
2023-01-03T01:55:27.480Z,29.92
2023-01-03T01:57:57.363Z,27.23
2023-01-03T02:00:26.349Z,24.48
2023-01-03T02:02:56.050Z,27.35
2023-01-03T02:05:27.167Z,29.92
2023-01-03T02:07:56.858Z,27.88
2023-01-03T02:10:45.574Z,27.40
2023-01-03T02:13:29.186Z,27.63
2023-01-03T02:16:15.727Z,30.45
2023-01-03T02:18:58.550Z,30.80
2023-01-03T02:21:54.488Z,25.85
2023-01-03T02:25:07.245Z,26.60
2023-01-03T02:28:19.565Z,27.02
2023-01-03T02:30:53.463Z,25.25
2023-01-03T02:33:30.276Z,28.70
2023-01-03T02:36:07.025Z,24.10
2023-01-03T02:38:48.950Z,28.60
2023-01-03T02:41:26.239Z,23.02
2023-01-03T02:44:01.342Z,28.80
2023-01-03T02:46:35.274Z,25.70
2023-01-03T02:49:09.780Z,26.73
2023-01-03T02:51:43.167Z,23.88
2023-01-03T02:54:16.941Z,24.33
2023-01-03T02:56:50.481Z,21.83
2023-01-03T02:59:36.765Z,22.38
2023-01-03T03:02:08.687Z,22.20
2023-01-03T03:04:39.293Z,28.88
2023-01-03T03:07:14.675Z,30.70
2023-01-03T03:09:56.797Z,26.38
2023-01-03T03:12:44.473Z,28.17
2023-01-03T03:15:13.964Z,24.35
2023-01-03T03:17:45.536Z,25.13
2023-01-03T03:20:34.770Z,27.20
2023-01-03T03:23:27.584Z,23.98
2023-01-03T03:26:02.014Z,27.13
2023-01-03T03:28:37.814Z,26.48
2023-01-03T03:31:11.595Z,30.65
2023-01-03T03:33:48.476Z,28.90
2023-01-03T03:36:24.789Z,27.95
2023-01-03T03:38:53.335Z,24.02
2023-01-03T03:41:51.471Z,30.05
2023-01-03T03:45:00.848Z,29.40
2023-01-03T03:47:39.532Z,29.63
2023-01-03T03:50:16.341Z,31.35
2023-01-03T03:52:49.208Z,32.63
2023-01-03T03:55:20.803Z,33.47
2023-01-03T03:57:54.808Z,28.38
2023-01-03T04:00:28.611Z,28.52
2023-01-03T04:02:58.862Z,29.73
2023-01-03T04:05:33.638Z,28.40
2023-01-03T04:08:01.973Z,33.00
2023-01-03T04:10:37.208Z,30.65
2023-01-03T04:13:06.340Z,25.67
2023-01-03T04:15:34.849Z,34.90
2023-01-03T04:18:03.133Z,31.52
2023-01-03T04:20:33.472Z,37.67
2023-01-03T04:23:01.787Z,35.17
2023-01-03T04:25:30.166Z,30.73
2023-01-03T04:27:58.503Z,28.67
2023-01-03T04:30:26.999Z,34.72
2023-01-03T04:32:56.577Z,30.08
2023-01-03T04:35:25.557Z,25.02
2023-01-03T04:37:55.821Z,32.55
2023-01-03T04:40:24.271Z,24.60
2023-01-03T04:43:11.191Z,26.33
2023-01-03T04:45:42.578Z,27.00
2023-01-03T04:48:11.069Z,28.88
2023-01-03T04:50:39.467Z,30.67
2023-01-03T04:53:10.197Z,30.65
2023-01-03T04:55:41.027Z,30.42
2023-01-03T04:58:09.263Z,28.58
2023-01-03T05:00:37.736Z,28.33
2023-01-03T05:03:06.011Z,26.38
2023-01-03T05:05:34.649Z,26.55
2023-01-03T05:08:06.103Z,34.22
2023-01-03T05:10:37.969Z,23.50
2023-01-03T05:13:06.373Z,27.63
2023-01-03T05:15:40.095Z,25.10
2023-01-03T05:18:08.332Z,33.47
2023-01-03T05:20:56.897Z,28.83
2023-01-03T05:23:43.856Z,23.67
2023-01-03T05:26:19.004Z,29.30
2023-01-03T05:28:51.620Z,28.73
2023-01-03T05:31:20.237Z,27.35
2023-01-03T05:33:48.758Z,29.23
2023-01-03T05:36:17.102Z,35.97
2023-01-03T05:38:45.408Z,29.83
2023-01-03T05:41:35.720Z,23.60
2023-01-03T05:44:04.203Z,25.27
2023-01-03T05:46:32.679Z,24.98
2023-01-03T05:49:01.137Z,32.08
2023-01-03T05:51:29.430Z,29.95
2023-01-03T05:53:57.935Z,30.60
2023-01-03T05:56:27.627Z,33.17
2023-01-03T05:58:55.924Z,32.40
2023-01-03T06:01:26.489Z,29.40
2023-01-03T06:03:55.216Z,24.48
2023-01-03T06:06:25.714Z,33.13
2023-01-03T06:08:54.716Z,26.27
2023-01-03T06:11:24.184Z,25.45
2023-01-03T06:13:54.833Z,30.00
2023-01-03T06:16:41.279Z,21.10
2023-01-03T06:19:10.334Z,27.38
2023-01-03T06:21:42.556Z,31.65
2023-01-03T06:24:11.142Z,31.50
2023-01-03T06:26:42.501Z,30.33
2023-01-03T06:29:13.736Z,29.73
2023-01-03T06:31:42.048Z,28.77
2023-01-03T06:34:10.509Z,28.98
2023-01-03T06:36:41.558Z,28.13
2023-01-03T06:39:09.869Z,27.02
2023-01-03T06:41:38.414Z,27.65
2023-01-03T06:44:06.980Z,24.08
2023-01-03T06:46:59.646Z,26.35
2023-01-03T06:50:00.264Z,23.55
2023-01-03T06:52:46.231Z,28.38
2023-01-03T06:55:16.312Z,30.98
2023-01-03T06:57:54.468Z,27.77
2023-01-03T07:00:23.201Z,25.85
2023-01-03T07:02:53.085Z,23.40
2023-01-03T07:05:21.633Z,32.53
2023-01-03T07:07:51.018Z,29.65
2023-01-03T07:10:20.768Z,26.20
2023-01-03T07:13:06.933Z,23.80
2023-01-03T07:19:19.075Z,23.88
2023-01-03T07:21:51.541Z,25.88
2023-01-03T07:24:20.254Z,21.90
2023-01-03T07:26:49.020Z,26.15
2023-01-03T07:29:17.912Z,27.42
2023-01-03T07:31:47.302Z,25.83
2023-01-03T07:34:17.455Z,26.48
2023-01-03T07:36:46.268Z,26.10
2023-01-03T07:39:14.896Z,25.75
2023-01-03T07:42:00.687Z,25.98
2023-01-03T07:44:29.089Z,26.42
2023-01-03T07:46:58.827Z,26.70
2023-01-03T07:49:29.001Z,28.38
2023-01-03T07:51:57.561Z,27.80
2023-01-03T07:54:26.228Z,30.88
2023-01-03T07:56:54.742Z,26.63
2023-01-03T07:59:24.107Z,31.17
2023-01-03T08:01:53.109Z,30.55
2023-01-03T08:04:21.870Z,28.70
2023-01-03T08:06:51.965Z,27.00
2023-01-03T08:09:37.826Z,26.10
2023-01-03T08:12:24.146Z,27.02
2023-01-03T08:14:52.473Z,28.52
2023-01-03T08:17:20.815Z,34.17
2023-01-03T08:19:49.280Z,36.92
2023-01-03T08:22:19.237Z,36.13
2023-01-03T08:24:47.563Z,30.98
2023-01-03T08:27:15.963Z,34.25
2023-01-03T08:29:44.308Z,37.10
2023-01-03T08:32:12.744Z,37.40
2023-01-03T08:34:44.388Z,45.90
2023-01-03T08:37:19.038Z,43.78
2023-01-03T08:39:54.365Z,45.88
2023-01-03T08:42:23.861Z,41.88
2023-01-03T08:44:58.010Z,50.75
2023-01-03T08:47:26.694Z,50.03
2023-01-03T08:49:56.115Z,41.47
2023-01-03T08:52:34.855Z,52.10
2023-01-03T08:55:03.829Z,52.53
2023-01-03T08:57:32.806Z,54.47
2023-01-03T09:00:01.185Z,49.22
2023-01-03T09:02:31.241Z,57.90
2023-01-03T09:05:00.713Z,48.88
2023-01-03T09:07:31.444Z,53.70
2023-01-03T09:10:02.847Z,47.30
2023-01-03T09:12:31.143Z,53.25
2023-01-03T09:14:59.571Z,52.72
2023-01-03T09:17:28.033Z,62.78
2023-01-03T09:19:56.619Z,58.72
2023-01-03T09:22:25.248Z,57.13
2023-01-03T09:24:55.623Z,65.32
2023-01-03T09:27:23.952Z,66.20
2023-01-03T09:29:53.221Z,58.45
2023-01-03T09:32:21.737Z,65.47
2023-01-03T09:34:54.161Z,69.82
2023-01-03T09:37:27.273Z,65.60
2023-01-03T09:40:02.760Z,59.53
2023-01-03T09:42:53.117Z,66.32
2023-01-03T09:45:29.835Z,58.08
2023-01-03T09:47:59.108Z,65.10
2023-01-03T09:50:50.707Z,71.00
2023-01-03T09:53:41.589Z,64.57
2023-01-03T09:56:32.034Z,76.00
2023-01-03T09:59:20.925Z,71.10
2023-01-03T10:02:23.929Z,77.22
2023-01-03T10:05:16.661Z,76.07
2023-01-03T10:08:06.614Z,65.75
2023-01-03T10:10:52.220Z,69.75
2023-01-03T10:13:42.688Z,67.55
2023-01-03T10:16:31.442Z,69.40
2023-01-03T10:19:40.084Z,74.53
2023-01-03T10:22:15.170Z,67.70
2023-01-03T10:24:48.835Z,64.13
2023-01-03T10:27:21.732Z,62.95
2023-01-03T10:29:55.353Z,59.42
2023-01-03T10:32:46.965Z,58.63
2023-01-03T10:35:23.944Z,59.40
2023-01-03T10:37:54.360Z,56.63
2023-01-03T10:40:33.979Z,48.05
2023-01-03T10:43:11.179Z,51.33
2023-01-03T10:45:55.860Z,52.97
2023-01-03T10:48:25.484Z,47.45
2023-01-03T10:50:54.437Z,46.90
2023-01-03T10:53:24.893Z,50.92
2023-01-03T10:55:55.263Z,53.25
2023-01-03T10:58:32.152Z,49.80
2023-01-03T11:01:25.086Z,49.70
2023-01-03T11:04:15.208Z,49.05
2023-01-03T11:07:14.796Z,45.20
2023-01-03T11:09:51.141Z,49.00
2023-01-03T11:12:29.079Z,42.83
2023-01-03T11:15:01.086Z,50.75
2023-01-03T11:17:31.365Z,46.10
2023-01-03T11:19:59.732Z,46.38
2023-01-03T11:22:39.057Z,41.72
2023-01-03T11:25:30.135Z,45.88
2023-01-03T11:28:46.270Z,37.72
2023-01-03T11:31:27.906Z,34.53
2023-01-03T11:34:11.521Z,40.35
2023-01-03T11:36:50.047Z,35.22
2023-01-03T11:39:57.662Z,35.10
2023-01-03T11:42:39.932Z,33.67
2023-01-03T11:45:31.933Z,30.20
2023-01-03T11:48:23.287Z,33.78
2023-01-03T11:50:58.235Z,37.53
2023-01-03T11:53:37.684Z,35.67
2023-01-03T11:56:23.912Z,27.67
2023-01-03T11:59:30.289Z,28.55
2023-01-03T12:02:56.322Z,26.25
2023-01-03T12:05:42.208Z,24.10
2023-01-03T12:08:44.209Z,31.42
2023-01-03T12:11:26.173Z,23.60
2023-01-03T12:14:04.974Z,29.83
2023-01-03T12:16:42.967Z,29.70
2023-01-03T12:19:27.238Z,21.00
2023-01-03T12:22:03.118Z,21.08
2023-01-03T12:24:39.591Z,23.67
2023-01-03T12:27:16.803Z,19.85
2023-01-03T12:29:59.076Z,16.98
2023-01-03T12:32:35.828Z,17.60
2023-01-03T12:35:27.190Z,17.05
2023-01-03T12:37:59.158Z,16.95
2023-01-03T12:40:40.621Z,18.80
2023-01-03T12:43:18.223Z,15.88
2023-01-03T12:45:53.109Z,15.10
2023-01-03T12:48:49.858Z,19.75
2023-01-03T12:51:21.687Z,24.45
2023-01-03T12:53:59.636Z,13.35
2023-01-03T12:57:04.515Z,16.55
2023-01-03T13:00:02.122Z,13.55
2023-01-03T13:02:46.601Z,20.65
2023-01-03T13:05:22.751Z,20.45
2023-01-03T13:08:03.111Z,14.73
2023-01-03T13:10:38.760Z,16.35
2023-01-03T13:13:11.781Z,17.05
2023-01-03T13:15:40.144Z,13.85
2023-01-03T13:18:31.350Z,15.88
2023-01-03T13:20:59.801Z,14.57
2023-01-03T13:23:35.762Z,18.48
2023-01-03T13:26:25.745Z,17.77
2023-01-03T13:29:45.521Z,18.25
2023-01-03T13:32:19.406Z,21.38
2023-01-03T13:35:29.514Z,15.88
2023-01-03T13:38:12.580Z,15.38
2023-01-03T13:41:16.630Z,23.60
2023-01-03T13:43:41.803Z,21.58
2023-01-03T13:46:22.963Z,14.93
2023-01-03T13:48:58.059Z,14.57
2023-01-03T13:51:47.073Z,15.50
2023-01-03T13:55:08.807Z,13.50
2023-01-03T13:57:53.294Z,17.30
2023-01-03T14:00:24.739Z,16.23
2023-01-03T14:03:35.771Z,17.20
2023-01-03T14:06:42.717Z,14.00
2023-01-03T14:09:43.178Z,19.67
2023-01-03T14:13:05.356Z,12.15
2023-01-03T14:15:35.069Z,15.30
2023-01-03T14:18:20.959Z,16.67
2023-01-03T14:20:53.151Z,14.45
2023-01-03T14:23:59.245Z,17.60
2023-01-03T14:26:18.522Z,14.68
2023-01-03T14:28:50.377Z,16.10
2023-01-03T14:31:26.528Z,16.05
2023-01-03T14:34:02.914Z,13.75
2023-01-03T14:36:31.582Z,12.43
2023-01-03T14:39:01.723Z,17.00
2023-01-03T14:41:33.568Z,13.52
2023-01-03T14:44:07.211Z,15.23
2023-01-03T14:46:37.773Z,19.40
2023-01-03T14:49:19.583Z,14.82
2023-01-03T14:51:48.235Z,15.65
2023-01-03T14:54:20.496Z,16.60
2023-01-03T14:56:50.109Z,19.33
2023-01-03T14:59:20.889Z,16.05
2023-01-03T15:01:49.755Z,17.75
2023-01-03T15:04:19.529Z,13.68
2023-01-03T15:07:06.340Z,17.05
2023-01-03T15:09:42.709Z,18.45
2023-01-03T15:12:15.036Z,21.27
2023-01-03T15:14:43.471Z,14.95
2023-01-03T15:17:19.818Z,17.05
2023-01-03T15:19:54.206Z,18.70
2023-01-03T15:22:25.065Z,16.60
2023-01-03T15:25:05.265Z,16.45
2023-01-03T15:27:43.418Z,17.60
2023-01-03T15:30:24.866Z,14.07
2023-01-03T15:33:03.341Z,19.80
2023-01-03T15:35:41.485Z,12.38
2023-01-03T15:38:19.033Z,18.40
2023-01-03T15:40:50.524Z,14.15
2023-01-03T15:43:23.791Z,16.10
2023-01-03T15:46:04.411Z,11.25
2023-01-03T15:48:37.953Z,18.67
2023-01-03T15:51:07.968Z,20.95
2023-01-03T15:53:43.742Z,18.55
2023-01-03T15:56:20.056Z,17.75
2023-01-03T15:58:53.110Z,14.10
2023-01-03T16:01:22.846Z,20.90
2023-01-03T16:03:52.751Z,19.38
2023-01-03T16:06:23.926Z,13.75
2023-01-03T16:08:53.025Z,17.20
2023-01-03T16:11:31.772Z,12.57
2023-01-03T16:14:09.514Z,14.15
2023-01-03T16:16:43.275Z,14.20
2023-01-03T16:19:19.867Z,19.45
2023-01-03T16:22:24.654Z,16.90
2023-01-03T16:24:40.958Z,13.95
2023-01-03T16:27:15.587Z,14.05
2023-01-03T16:29:44.453Z,11.60
2023-01-03T16:32:20.985Z,15.68
2023-01-03T16:34:50.367Z,19.30
2023-01-03T16:37:20.198Z,16.05
2023-01-03T16:39:48.992Z,14.90
2023-01-03T16:42:18.973Z,14.85
2023-01-03T16:44:48.792Z,13.95
2023-01-03T16:47:22.147Z,17.33
2023-01-03T16:49:56.366Z,18.10
2023-01-03T16:52:29.600Z,16.40
2023-01-03T16:54:57.957Z,13.75
2023-01-03T16:57:28.461Z,13.13
2023-01-03T16:59:57.408Z,16.95
2023-01-03T17:02:26.118Z,20.08
2023-01-03T17:04:54.625Z,17.63
2023-01-03T17:07:27.242Z,16.10
2023-01-03T17:09:55.729Z,19.33
2023-01-03T17:12:25.531Z,14.68
2023-01-03T17:14:54.083Z,12.80
2023-01-03T17:17:24.419Z,16.45
2023-01-03T17:20:08.494Z,15.45
2023-01-03T17:22:40.412Z,16.98
2023-01-03T17:25:12.006Z,16.50
2023-01-03T17:27:40.450Z,14.07
2023-01-03T17:30:10.283Z,21.90
2023-01-03T17:32:38.923Z,14.50
2023-01-03T17:35:13.527Z,16.15
2023-01-03T17:38:14.231Z,17.67
2023-01-03T17:40:34.154Z,17.52
2023-01-03T17:43:03.677Z,20.80
2023-01-03T17:45:49.512Z,21.88
2023-01-03T17:48:35.990Z,19.17
2023-01-03T17:51:04.626Z,17.02
2023-01-03T17:53:34.676Z,21.05
2023-01-03T17:56:02.982Z,18.40
2023-01-03T17:58:35.550Z,12.50
2023-01-03T18:01:05.817Z,23.58
2023-01-03T18:03:34.382Z,12.77
2023-01-03T18:06:07.068Z,14.13
2023-01-03T18:08:37.086Z,18.75
2023-01-03T18:11:07.474Z,15.77
2023-01-03T18:13:38.413Z,18.00
2023-01-03T18:16:07.968Z,15.70
2023-01-03T18:18:36.617Z,15.90
2023-01-03T18:21:16.878Z,15.95
2023-01-03T18:23:47.505Z,19.63
2023-01-03T18:26:17.375Z,18.67
2023-01-03T18:28:45.772Z,14.85
2023-01-03T18:31:20.515Z,17.60
2023-01-03T18:33:49.203Z,17.15
2023-01-03T18:36:26.819Z,17.67
2023-01-03T18:39:06.801Z,17.02
2023-01-03T18:41:36.148Z,13.98
2023-01-03T18:44:04.838Z,14.63
2023-01-03T18:46:33.387Z,17.15
2023-01-03T18:49:02.430Z,16.58
2023-01-03T18:51:31.169Z,17.35
2023-01-03T18:54:01.703Z,13.70
2023-01-03T18:56:36.494Z,17.95
2023-01-03T18:59:11.657Z,22.67
2023-01-03T19:01:40.205Z,16.23
2023-01-03T19:04:08.699Z,13.45
2023-01-03T19:06:45.550Z,14.25
2023-01-03T19:09:22.861Z,15.23
2023-01-03T19:11:52.012Z,13.90
2023-01-03T19:14:20.483Z,14.70
2023-01-03T19:16:49.111Z,14.50
2023-01-03T19:19:17.431Z,14.82
2023-01-03T19:21:47.652Z,12.93
2023-01-03T19:24:26.394Z,16.20
2023-01-03T19:26:58.710Z,21.30
2023-01-03T19:29:36.705Z,15.43
2023-01-03T19:32:08.240Z,18.17
2023-01-03T19:34:37.089Z,16.88
2023-01-03T19:37:05.441Z,10.90
2023-01-03T19:39:37.867Z,12.23
2023-01-03T19:42:26.110Z,15.13
2023-01-03T19:44:55.293Z,12.38
2023-01-03T19:47:23.837Z,16.42
2023-01-03T19:49:52.200Z,12.27
2023-01-03T19:52:20.583Z,14.25
2023-01-03T19:54:51.012Z,15.75
2023-01-03T19:57:23.509Z,14.65
2023-01-03T19:59:56.782Z,13.63
2023-01-03T20:02:42.568Z,13.27
2023-01-03T20:05:19.522Z,14.18
2023-01-03T20:07:49.446Z,9.73
2023-01-03T20:10:22.900Z,13.27
2023-01-03T20:12:57.122Z,12.60
2023-01-03T20:15:29.604Z,11.70
2023-01-03T20:17:58.387Z,10.88
2023-01-03T20:20:31.552Z,13.70
2023-01-03T20:23:06.218Z,16.00
2023-01-03T20:25:41.518Z,12.98
2023-01-03T20:28:19.131Z,16.42
2023-01-03T20:30:49.005Z,13.18
2023-01-03T20:33:17.729Z,14.40
2023-01-03T20:36:11.268Z,14.50
2023-01-03T20:38:37.930Z,12.82
2023-01-03T20:41:10.657Z,13.10
2023-01-03T20:43:39.291Z,13.02
2023-01-03T20:46:10.705Z,13.38
2023-01-03T20:48:39.268Z,8.82
2023-01-03T20:51:07.623Z,11.15
2023-01-03T20:53:42.587Z,15.27
2023-01-03T20:56:15.026Z,15.13
2023-01-03T20:58:43.741Z,13.77
2023-01-03T21:01:26.488Z,14.38
2023-01-03T21:03:54.933Z,7.05
2023-01-03T21:06:27.014Z,13.02
2023-01-03T21:08:54.573Z,9.65
2023-01-03T21:11:26.836Z,13.82
2023-01-03T21:13:55.251Z,16.90
2023-01-03T21:16:34.642Z,12.20
2023-01-03T21:19:08.781Z,11.68
2023-01-03T21:21:37.512Z,12.45
2023-01-03T21:24:07.890Z,13.93
2023-01-03T21:26:38.570Z,11.45
2023-01-03T21:29:07.812Z,8.63
2023-01-03T21:31:38.169Z,14.43
2023-01-03T21:34:08.235Z,13.15
2023-01-03T21:36:37.740Z,13.40
2023-01-03T21:39:06.587Z,23.17
2023-01-03T21:41:58.411Z,10.80
2023-01-03T21:44:26.924Z,13.02
2023-01-03T21:46:55.235Z,9.35
2023-01-03T21:49:24.413Z,14.35
2023-01-03T21:51:52.839Z,16.85
2023-01-03T21:54:24.762Z,11.48
2023-01-03T21:56:54.663Z,10.73
2023-01-03T21:59:23.077Z,13.85
2023-01-03T22:02:08.861Z,14.52
2023-01-03T22:04:39.492Z,10.20
2023-01-03T22:07:08.096Z,14.32
2023-01-03T22:09:54.140Z,14.90
2023-01-03T22:12:24.083Z,9.50
2023-01-03T22:14:52.372Z,9.05
2023-01-03T22:17:21.233Z,14.02
2023-01-03T22:19:49.534Z,13.85
2023-01-03T22:22:18.110Z,10.93
2023-01-03T22:24:46.683Z,11.13
2023-01-03T22:27:15.089Z,11.02
2023-01-03T22:29:44.908Z,10.90
2023-01-03T22:32:15.402Z,11.77
2023-01-03T22:34:43.787Z,11.90
2023-01-03T22:37:12.171Z,13.30
2023-01-03T22:39:40.455Z,12.27
2023-01-03T22:45:21.953Z,10.75
2023-01-03T22:47:50.884Z,11.75
2023-01-03T22:50:19.800Z,14.70
2023-01-03T22:52:48.147Z,8.93
2023-01-03T22:55:16.798Z,7.60
2023-01-03T22:57:52.573Z,13.90
2023-01-03T23:00:36.634Z,8.85
2023-01-03T23:03:05.895Z,10.70
2023-01-03T23:05:37.632Z,9.35
2023-01-03T23:08:13.526Z,15.27
2023-01-03T23:10:43.218Z,11.63
2023-01-03T23:13:11.017Z,16.42
2023-01-03T23:15:41.679Z,14.77
2023-01-03T23:18:11.148Z,13.35
2023-01-03T23:20:49.256Z,13.20
2023-01-03T23:23:21.249Z,10.25
2023-01-03T23:25:50.426Z,15.63
2023-01-03T23:28:20.104Z,11.05
2023-01-03T23:30:50.521Z,8.80
2023-01-03T23:33:19.744Z,7.75
2023-01-03T23:35:48.908Z,13.07
2023-01-03T23:38:18.057Z,10.30
2023-01-03T23:40:47.207Z,8.27
2023-01-03T23:43:16.134Z,11.65
2023-01-03T23:45:45.582Z,11.32
2023-01-03T23:48:16.412Z,11.40
2023-01-03T23:50:45.222Z,14.45
2023-01-03T23:53:14.696Z,11.95
2023-01-03T23:55:43.781Z,7.88
2023-01-03T23:58:13.190Z,7.28
